Grapevine, Arkansas
Current Conditions -  °F | °C
As of 1:53 AM on Monday 22 Dec 2014 (Local Time) from KPBF Reporting Station
Overcast Overcast  
Wind Chill: 46°   Ceiling: 1200
Heat Index: 46°   Visibility: 10mi
Dew Point: 42°   Wind: 0mph
Humidity: 86%   Direction: NA
Pressure: 29.86"   Gusts: NA
Location:  34.15°N, 92.32°W
Report Text: KPBF 220753Z AUTO 00000KT 10SM OVC012 08/06 A2986 RMK AO2 SLP109 T00780056
Loading
Personal Weather Stations






























Interactive Weather Map New forecast layout! Learn more

10-Day Weather Forecast

Advertisements
Track Severe Weather on mobile